createdAt,value
2018-05-29T00:02:21.503Z,90.70
2018-05-29T00:04:49.229Z,90.80
2018-05-29T00:07:17.677Z,90.80
2018-05-29T00:09:45.319Z,90.80
2018-05-29T00:12:13.798Z,91.00
2018-05-29T00:14:41.490Z,91.00
2018-05-29T00:17:09.203Z,90.90
2018-05-29T00:19:36.879Z,90.90
2018-05-29T00:22:04.696Z,91.00
2018-05-29T00:24:32.409Z,91.00
2018-05-29T00:27:00.181Z,91.00
2018-05-29T00:29:27.858Z,91.10
2018-05-29T00:31:55.583Z,91.10
2018-05-29T00:34:23.315Z,91.20
2018-05-29T00:36:51.050Z,91.20
2018-05-29T00:39:18.734Z,91.20
2018-05-29T00:41:46.481Z,91.20
2018-05-29T00:44:14.247Z,91.20
2018-05-29T00:46:41.986Z,91.10
2018-05-29T00:49:09.610Z,91.20
2018-05-29T00:51:37.870Z,91.40
2018-05-29T00:54:05.589Z,91.00
2018-05-29T00:56:33.279Z,90.80
2018-05-29T00:59:01.054Z,90.90
2018-05-29T01:01:29.447Z,90.80
2018-05-29T01:03:57.155Z,90.90
2018-05-29T01:06:25.586Z,90.80
2018-05-29T01:08:53.246Z,90.80
2018-05-29T01:11:20.911Z,90.80
2018-05-29T01:13:48.609Z,90.80
2018-05-29T01:16:16.391Z,90.90
2018-05-29T01:18:44.875Z,91.20
2018-05-29T01:21:12.527Z,90.90
2018-05-29T01:23:40.195Z,91.00
2018-05-29T01:26:07.895Z,91.10
2018-05-29T01:28:35.580Z,91.10
2018-05-29T01:31:03.235Z,91.10
2018-05-29T01:33:30.917Z,91.00
2018-05-29T01:35:58.592Z,91.10
2018-05-29T01:38:27.208Z,91.10
2018-05-29T01:40:54.863Z,91.10
2018-05-29T01:43:25.351Z,91.10
2018-05-29T01:45:53.018Z,91.50
2018-05-29T01:48:20.709Z,91.20
2018-05-29T01:50:48.350Z,91.10
2018-05-29T01:53:16.041Z,91.20
2018-05-29T01:55:43.679Z,91.20
2018-05-29T01:58:11.364Z,91.30
2018-05-29T02:00:39.128Z,91.30
2018-05-29T02:03:06.798Z,91.70
2018-05-29T02:05:34.566Z,91.50
2018-05-29T02:08:02.253Z,91.40
2018-05-29T02:10:29.955Z,91.50
2018-05-29T02:12:57.647Z,91.40
2018-05-29T02:15:25.280Z,91.40
2018-05-29T02:17:52.938Z,91.40
2018-05-29T02:20:20.607Z,91.50
2018-05-29T02:22:48.265Z,91.50
2018-05-29T02:25:16.026Z,91.60
2018-05-29T02:27:43.650Z,91.50
2018-05-29T02:30:11.384Z,91.60
2018-05-29T02:32:39.118Z,91.60
2018-05-29T02:35:06.862Z,91.70
2018-05-29T02:37:35.291Z,91.60
2018-05-29T02:40:03.881Z,91.50
2018-05-29T02:42:31.450Z,91.50
2018-05-29T02:44:59.185Z,91.40
2018-05-29T02:47:26.861Z,92.00
2018-05-29T02:49:55.398Z,91.50
2018-05-29T02:52:23.059Z,91.40
2018-05-29T02:54:50.815Z,91.60
2018-05-29T02:57:18.541Z,91.70
2018-05-29T02:59:46.197Z,91.50
2018-05-29T03:02:13.858Z,91.40
2018-05-29T03:04:41.570Z,91.40
2018-05-29T03:07:09.316Z,91.50
2018-05-29T03:09:36.974Z,91.50
2018-05-29T03:12:04.642Z,91.50
2018-05-29T03:14:32.313Z,91.50
2018-05-29T03:16:59.997Z,91.40
2018-05-29T03:19:27.718Z,91.50
2018-05-29T03:21:55.424Z,91.40
2018-05-29T03:24:23.094Z,91.30
2018-05-29T03:26:50.792Z,91.40
2018-05-29T03:29:18.555Z,91.40
2018-05-29T03:31:46.217Z,91.30
2018-05-29T03:34:14.356Z,91.50
2018-05-29T03:36:42.027Z,92.20
2018-05-29T03:39:09.713Z,91.70
2018-05-29T03:41:37.371Z,91.50
2018-05-29T03:44:05.053Z,91.40
2018-05-29T03:46:32.750Z,91.40
2018-05-29T03:49:00.550Z,91.40
2018-05-29T03:51:28.214Z,91.10
2018-05-29T03:53:55.925Z,91.00
2018-05-29T03:56:23.565Z,90.50
2018-05-29T03:58:51.275Z,90.00
2018-05-29T04:01:19.029Z,89.80
2018-05-29T04:03:46.730Z,89.60
2018-05-29T04:06:14.445Z,90.10
2018-05-29T04:08:42.219Z,89.90
2018-05-29T04:11:10.654Z,89.30
2018-05-29T04:13:38.394Z,89.30
2018-05-29T04:16:06.113Z,89.20
2018-05-29T04:18:33.766Z,88.80
2018-05-29T04:21:01.434Z,88.50
2018-05-29T04:23:29.133Z,88.20
2018-05-29T04:25:56.801Z,88.20
2018-05-29T04:28:24.483Z,88.10
2018-05-29T04:30:53.026Z,87.50
2018-05-29T04:33:20.734Z,87.20
2018-05-29T04:35:48.486Z,87.00
2018-05-29T04:38:16.251Z,86.80
2018-05-29T04:40:43.914Z,86.60
2018-05-29T04:43:11.599Z,86.20
2018-05-29T04:45:39.241Z,85.70
2018-05-29T04:48:06.926Z,85.70
2018-05-29T04:50:34.602Z,85.60
2018-05-29T04:53:02.352Z,85.50
2018-05-29T04:55:30.119Z,85.30
2018-05-29T04:57:57.990Z,86.40
2018-05-29T05:00:25.647Z,86.80
2018-05-29T05:02:53.406Z,85.40
2018-05-29T05:05:21.142Z,85.20
2018-05-29T05:07:48.873Z,84.30
2018-05-29T05:10:16.570Z,84.60
2018-05-29T05:12:44.811Z,83.90
2018-05-29T05:15:13.038Z,83.70
2018-05-29T05:17:40.764Z,83.80
2018-05-29T05:20:09.292Z,83.70
2018-05-29T05:22:37.202Z,83.60
2018-05-29T05:25:05.242Z,83.70
2018-05-29T05:27:32.948Z,83.60
2018-05-29T05:30:00.995Z,83.50
2018-05-29T05:32:28.714Z,83.40
2018-05-29T05:34:56.440Z,83.60
2018-05-29T05:37:24.239Z,83.80
2018-05-29T05:39:51.952Z,83.80
2018-05-29T05:42:20.277Z,83.30
2018-05-29T05:44:47.955Z,83.50
2018-05-29T05:47:15.622Z,83.60
2018-05-29T05:49:43.294Z,84.40
2018-05-29T05:52:11.101Z,83.60
2018-05-29T05:54:38.843Z,83.80
2018-05-29T05:57:07.413Z,83.50
2018-05-29T05:59:35.158Z,83.60
2018-05-29T06:02:02.942Z,83.20
2018-05-29T06:04:30.742Z,82.50
2018-05-29T06:06:58.467Z,82.10
2018-05-29T06:09:26.233Z,81.90
2018-05-29T06:11:53.989Z,81.40
2018-05-29T06:14:21.733Z,80.80
2018-05-29T06:16:49.404Z,80.80
2018-05-29T06:19:17.096Z,80.50
2018-05-29T06:21:44.734Z,80.20
2018-05-29T06:24:12.403Z,79.90
2018-05-29T06:26:40.075Z,79.50
2018-05-29T06:29:07.866Z,79.60
2018-05-29T06:31:35.539Z,79.40
2018-05-29T06:34:03.214Z,79.50
2018-05-29T06:36:30.832Z,78.80
2018-05-29T06:38:58.578Z,78.30
2018-05-29T06:41:26.344Z,77.60
2018-05-29T06:43:54.010Z,76.60
2018-05-29T06:46:21.675Z,76.00
2018-05-29T06:48:50.178Z,74.90
2018-05-29T06:51:17.908Z,74.90
2018-05-29T06:53:45.559Z,74.50
2018-05-29T06:56:13.230Z,74.50
2018-05-29T06:58:40.906Z,73.70
2018-05-29T07:01:09.334Z,70.70
2018-05-29T07:03:37.034Z,70.70
2018-05-29T07:06:04.694Z,69.80
2018-05-29T07:08:32.382Z,68.90
2018-05-29T07:11:00.154Z,67.00
2018-05-29T07:13:27.914Z,65.70
2018-05-29T07:15:55.676Z,63.70
2018-05-29T07:18:23.334Z,60.70
2018-05-29T07:20:51.826Z,56.50
2018-05-29T07:23:19.560Z,56.40
2018-05-29T07:25:47.266Z,55.20
2018-05-29T07:28:14.918Z,53.90
2018-05-29T07:30:42.563Z,53.60
2018-05-29T07:33:11.055Z,54.50
2018-05-29T07:35:38.798Z,54.40
2018-05-29T07:38:06.467Z,54.00
2018-05-29T07:40:34.171Z,54.00
2018-05-29T07:43:01.882Z,54.10
2018-05-29T07:45:29.667Z,52.70
2018-05-29T07:47:57.425Z,52.00
2018-05-29T07:50:25.915Z,53.10
2018-05-29T07:52:53.627Z,53.10
2018-05-29T07:55:21.267Z,52.30
2018-05-29T07:57:50.437Z,52.00
2018-05-29T08:00:18.919Z,51.80
2018-05-29T08:02:46.592Z,51.80
2018-05-29T08:05:14.258Z,52.40
2018-05-29T08:07:42.004Z,52.60
2018-05-29T08:10:09.727Z,52.20
2018-05-29T08:12:37.405Z,52.20
2018-05-29T08:15:05.150Z,51.60
2018-05-29T08:17:32.819Z,50.90
2018-05-29T08:20:00.511Z,49.50
2018-05-29T08:22:28.954Z,48.80
2018-05-29T08:24:56.757Z,47.60
2018-05-29T08:27:24.471Z,47.00
2018-05-29T08:29:52.436Z,45.80
2018-05-29T08:32:20.159Z,44.20
2018-05-29T08:34:48.616Z,41.60
2018-05-29T08:37:16.310Z,41.60
2018-05-29T08:39:43.984Z,42.40
2018-05-29T08:42:11.641Z,42.20
2018-05-29T08:44:39.307Z,42.20
2018-05-29T08:47:07.017Z,41.80
2018-05-29T08:49:34.718Z,40.90
2018-05-29T08:52:03.445Z,40.80
2018-05-29T08:54:32.005Z,41.70
2018-05-29T08:56:59.657Z,41.70
2018-05-29T08:59:27.300Z,40.80
2018-05-29T09:01:54.940Z,40.50
2018-05-29T09:04:22.669Z,40.80
2018-05-29T09:06:50.327Z,40.80
2018-05-29T09:09:18.027Z,41.30
2018-05-29T09:11:45.677Z,40.70
2018-05-29T09:14:13.372Z,40.90
2018-05-29T09:16:41.851Z,41.60
2018-05-29T09:19:10.264Z,41.20
2018-05-29T09:21:37.947Z,41.10
2018-05-29T09:24:05.606Z,40.60
2018-05-29T09:26:33.246Z,40.30
2018-05-29T09:29:00.905Z,40.10
2018-05-29T09:31:28.596Z,39.40
2018-05-29T09:33:56.229Z,39.60
2018-05-29T09:36:23.870Z,39.50
2018-05-29T09:38:51.528Z,39.40
2018-05-29T09:41:20.037Z,40.70
2018-05-29T09:43:47.758Z,40.70
2018-05-29T09:46:15.463Z,40.40
2018-05-29T09:48:43.182Z,40.60
2018-05-29T09:51:10.869Z,40.60
2018-05-29T09:53:38.530Z,40.40
2018-05-29T09:56:06.184Z,39.70
2018-05-29T09:58:33.860Z,39.90
2018-05-29T10:01:01.531Z,39.90
2018-05-29T10:03:29.198Z,40.00
2018-05-29T10:05:57.609Z,39.70
2018-05-29T10:08:25.222Z,39.70
2018-05-29T10:10:53.476Z,39.70
2018-05-29T10:13:21.907Z,39.30
2018-05-29T10:15:50.308Z,38.80
2018-05-29T10:18:17.947Z,38.80
2018-05-29T10:20:45.665Z,39.60
2018-05-29T10:23:13.371Z,39.50
2018-05-29T10:25:41.044Z,39.70
2018-05-29T10:28:08.708Z,39.70
2018-05-29T10:30:36.398Z,39.80
2018-05-29T10:33:04.052Z,39.10
2018-05-29T10:35:31.702Z,39.80
2018-05-29T10:37:59.395Z,39.60
2018-05-29T10:40:27.831Z,39.40
2018-05-29T10:42:55.489Z,39.40
2018-05-29T10:45:23.191Z,39.20
2018-05-29T10:47:50.891Z,38.90
2018-05-29T10:50:18.572Z,38.50
2018-05-29T10:52:46.256Z,38.50
2018-05-29T10:55:13.923Z,38.40
2018-05-29T10:57:41.584Z,37.80
2018-05-29T11:00:09.250Z,38.10
2018-05-29T11:02:36.930Z,38.10
2018-05-29T11:05:04.633Z,37.90
2018-05-29T11:07:32.332Z,38.00
2018-05-29T11:10:00.035Z,37.50
2018-05-29T11:12:28.498Z,38.40
2018-05-29T11:14:56.147Z,38.40
2018-05-29T11:17:23.800Z,38.60
2018-05-29T11:19:51.478Z,37.70
2018-05-29T11:22:19.157Z,37.60
2018-05-29T11:24:46.848Z,37.70
2018-05-29T11:27:14.512Z,38.00
2018-05-29T11:29:42.211Z,37.80
2018-05-29T11:32:09.888Z,37.20
2018-05-29T11:34:37.557Z,37.80
2018-05-29T11:37:06.063Z,39.90
2018-05-29T11:39:33.740Z,39.80
2018-05-29T11:42:01.404Z,40.10
2018-05-29T11:44:29.142Z,39.60
2018-05-29T11:46:56.876Z,39.60
2018-05-29T11:49:24.556Z,39.40
2018-05-29T11:51:52.985Z,40.10
2018-05-29T11:54:20.670Z,40.00
2018-05-29T11:56:49.120Z,40.30
2018-05-29T11:59:16.861Z,40.40
2018-05-29T12:01:44.634Z,40.40
2018-05-29T12:04:12.347Z,41.30
2018-05-29T12:06:40.079Z,40.60
2018-05-29T12:09:07.734Z,39.80
2018-05-29T12:11:35.354Z,38.40
2018-05-29T12:14:03.101Z,36.70
2018-05-29T12:16:30.849Z,36.20
2018-05-29T12:18:58.547Z,36.30
2018-05-29T12:21:26.183Z,37.20
2018-05-29T12:23:53.840Z,37.90
2018-05-29T12:26:21.503Z,39.30
2018-05-29T12:28:49.166Z,40.10
2018-05-29T12:31:16.851Z,40.80
2018-05-29T12:33:45.303Z,41.70
2018-05-29T12:36:13.028Z,41.70
2018-05-29T12:38:40.692Z,42.50
2018-05-29T12:41:08.446Z,38.10
2018-05-29T12:43:36.159Z,38.70
2018-05-29T12:46:03.871Z,39.20
2018-05-29T12:48:31.601Z,40.00
2018-05-29T12:50:59.275Z,40.80
2018-05-29T12:53:26.987Z,41.60
2018-05-29T12:55:54.763Z,41.30
2018-05-29T12:58:22.546Z,40.00
2018-05-29T13:00:50.222Z,40.50
2018-05-29T13:03:19.352Z,41.00
2018-05-29T13:05:46.996Z,41.00
2018-05-29T13:08:15.514Z,42.60
2018-05-29T13:10:43.218Z,42.50
2018-05-29T13:13:10.873Z,42.40
2018-05-29T13:15:38.603Z,42.30
2018-05-29T13:18:06.283Z,42.40
2018-05-29T13:20:33.947Z,41.90
2018-05-29T13:23:01.658Z,41.10
2018-05-29T13:25:29.350Z,40.50
2018-05-29T13:27:57.060Z,39.50
2018-05-29T13:30:24.736Z,38.90
2018-05-29T13:32:53.209Z,40.00
2018-05-29T13:35:21.040Z,40.00
2018-05-29T13:37:48.748Z,40.50
2018-05-29T13:40:17.206Z,40.60
2018-05-29T13:42:44.982Z,40.50
2018-05-29T13:45:12.658Z,39.70
2018-05-29T13:47:40.343Z,39.30
2018-05-29T13:50:07.982Z,40.50
2018-05-29T13:52:36.462Z,38.60
2018-05-29T13:55:05.022Z,37.90
2018-05-29T13:57:32.719Z,37.90
2018-05-29T14:00:00.455Z,38.30
2018-05-29T14:02:28.114Z,38.60
2018-05-29T14:04:55.779Z,39.00
2018-05-29T14:07:23.440Z,40.50
2018-05-29T14:09:51.098Z,40.80
2018-05-29T14:12:18.813Z,41.50
2018-05-29T14:14:46.554Z,41.40
2018-05-29T14:17:14.289Z,41.40
2018-05-29T14:19:41.989Z,41.10
2018-05-29T14:22:09.703Z,41.60
2018-05-29T14:24:37.361Z,42.50
2018-05-29T14:27:05.070Z,42.60
2018-05-29T14:29:32.739Z,42.10
2018-05-29T14:32:00.454Z,42.60
2018-05-29T14:34:28.122Z,41.30
2018-05-29T14:36:55.767Z,42.40
2018-05-29T14:39:23.436Z,41.80
2018-05-29T14:41:51.125Z,41.40
2018-05-29T14:44:18.825Z,41.70
2018-05-29T14:46:46.467Z,41.10
2018-05-29T14:49:14.235Z,41.80
2018-05-29T14:51:41.973Z,43.10
2018-05-29T14:54:10.426Z,43.20
2018-05-29T14:56:38.118Z,42.50
2018-05-29T14:59:05.811Z,42.90
2018-05-29T15:01:33.474Z,43.30
2018-05-29T15:04:01.788Z,43.50
2018-05-29T15:06:29.477Z,43.80
2018-05-29T15:08:57.161Z,44.10
2018-05-29T15:11:24.945Z,44.50
2018-05-29T15:13:52.679Z,44.70
2018-05-29T15:16:21.089Z,45.30
2018-05-29T15:18:48.806Z,45.20
2018-05-29T15:21:16.458Z,45.30
2018-05-29T15:23:44.184Z,45.40
2018-05-29T15:26:11.895Z,44.90
2018-05-29T15:28:40.382Z,44.90
2018-05-29T15:31:08.033Z,44.80
2018-05-29T15:33:35.723Z,44.60
2018-05-29T15:36:04.274Z,44.90
2018-05-29T15:38:32.028Z,44.80
2018-05-29T15:40:59.771Z,45.10
2018-05-29T15:43:27.489Z,45.00
2018-05-29T15:45:55.978Z,44.40
2018-05-29T15:48:23.741Z,44.40
2018-05-29T15:50:51.383Z,44.40
2018-05-29T15:53:19.074Z,44.20
2018-05-29T15:55:46.745Z,43.80
2018-05-29T15:58:14.550Z,43.60
2018-05-29T16:00:42.335Z,43.50
2018-05-29T16:03:10.096Z,43.80
2018-05-29T16:05:37.828Z,44.60
2018-05-29T16:08:05.559Z,44.00
2018-05-29T16:10:33.294Z,43.90
2018-05-29T16:13:01.007Z,44.30
2018-05-29T16:15:28.751Z,44.50
2018-05-29T16:17:56.406Z,44.50
2018-05-29T16:20:24.846Z,44.60
2018-05-29T16:22:52.534Z,44.60
2018-05-29T16:25:20.954Z,45.20
2018-05-29T16:27:48.753Z,45.20
2018-05-29T16:30:16.476Z,45.70
2018-05-29T16:32:45.010Z,46.00
2018-05-29T16:35:12.724Z,46.30
2018-05-29T16:37:40.480Z,46.80
2018-05-29T16:40:08.264Z,47.30
2018-05-29T16:42:35.973Z,47.50
2018-05-29T16:45:03.720Z,48.10
2018-05-29T16:47:31.461Z,48.10
2018-05-29T16:49:59.272Z,48.40
2018-05-29T16:52:26.995Z,48.60
2018-05-29T16:54:54.726Z,48.80
2018-05-29T16:57:22.430Z,49.00
2018-05-29T16:59:50.184Z,49.20
2018-05-29T17:02:17.895Z,49.50
2018-05-29T17:04:46.424Z,49.60
2018-05-29T17:07:14.249Z,49.60
2018-05-29T17:09:42.691Z,50.10
2018-05-29T17:12:10.439Z,50.10
2018-05-29T17:14:38.183Z,50.10
2018-05-29T17:17:05.912Z,50.40
2018-05-29T17:19:33.595Z,50.70
2018-05-29T17:22:01.370Z,52.10
2018-05-29T17:24:29.099Z,52.60
2018-05-29T17:26:57.284Z,53.50
2018-05-29T17:29:25.044Z,55.80
2018-05-29T17:31:52.707Z,59.90
2018-05-29T17:34:20.864Z,61.50
2018-05-29T17:36:48.642Z,62.90
2018-05-29T17:39:16.361Z,63.50
2018-05-29T17:41:44.278Z,60.50
2018-05-29T17:44:12.862Z,57.70
2018-05-29T17:46:40.679Z,57.60
2018-05-29T17:49:08.390Z,57.70
2018-05-29T17:51:36.071Z,57.70
2018-05-29T17:54:03.847Z,58.70
2018-05-29T17:56:31.586Z,60.50
2018-05-29T17:59:00.150Z,62.40
2018-05-29T18:01:27.885Z,62.30
2018-05-29T18:03:55.594Z,63.00
2018-05-29T18:06:24.188Z,62.20
2018-05-29T18:08:51.906Z,62.10
2018-05-29T18:11:19.618Z,61.60
2018-05-29T18:13:47.322Z,60.70
2018-05-29T18:16:15.058Z,61.80
2018-05-29T18:18:42.780Z,67.20
2018-05-29T18:21:11.516Z,71.20
2018-05-29T18:23:39.253Z,79.40
2018-05-29T18:26:07.029Z,84.50
2018-05-29T18:28:34.809Z,83.20
2018-05-29T18:31:02.562Z,79.90
2018-05-29T18:33:30.474Z,88.00
2018-05-29T18:35:58.171Z,90.30
2018-05-29T18:38:26.675Z,89.00
2018-05-29T18:40:54.394Z,88.90
2018-05-29T18:43:22.110Z,91.30
2018-05-29T18:45:49.822Z,92.00
2018-05-29T18:48:17.577Z,93.10
2018-05-29T18:50:45.307Z,92.90
2018-05-29T18:53:13.057Z,92.50
2018-05-29T18:55:40.827Z,91.80
2018-05-29T18:58:08.559Z,91.60
2018-05-29T19:00:36.273Z,92.60
2018-05-29T19:03:04.746Z,91.70
2018-05-29T19:05:32.555Z,92.00
2018-05-29T19:08:00.876Z,91.80
2018-05-29T19:10:28.624Z,89.20
2018-05-29T19:12:56.420Z,90.40
2018-05-29T19:15:24.180Z,90.00
2018-05-29T19:17:52.015Z,89.30
2018-05-29T19:20:19.804Z,90.40
2018-05-29T19:22:47.617Z,90.20
2018-05-29T19:25:15.407Z,89.20
2018-05-29T19:27:43.248Z,90.00
2018-05-29T19:30:11.036Z,90.00
2018-05-29T19:32:38.782Z,90.30
2018-05-29T19:35:07.297Z,90.00
2018-05-29T19:37:35.054Z,90.00
2018-05-29T19:40:03.676Z,90.10
2018-05-29T19:42:31.426Z,90.10
2018-05-29T19:44:59.265Z,89.50
2018-05-29T19:47:27.821Z,89.30
2018-05-29T19:49:55.631Z,89.30
2018-05-29T19:52:23.476Z,88.60
2018-05-29T19:54:52.332Z,88.00
2018-05-29T19:57:20.193Z,88.00
2018-05-29T19:59:48.091Z,87.60
2018-05-29T20:02:15.954Z,87.10
2018-05-29T20:04:43.673Z,88.00
2018-05-29T20:07:12.393Z,87.50
2018-05-29T20:10:07.661Z,86.40
2018-05-29T20:12:35.399Z,86.30
2018-05-29T20:15:04.183Z,86.70
2018-05-29T20:17:31.914Z,86.60
2018-05-29T20:19:59.753Z,86.40
2018-05-29T20:22:27.443Z,84.10
2018-05-29T20:24:55.335Z,83.50
2018-05-29T20:27:23.121Z,83.60
2018-05-29T20:29:51.129Z,83.60
2018-05-29T20:32:18.859Z,83.60
2018-05-29T20:34:46.656Z,83.40
2018-05-29T20:37:14.634Z,83.60
2018-05-29T20:39:42.497Z,83.20
2018-05-29T20:42:10.368Z,82.50
2018-05-29T20:44:39.005Z,83.10
2018-05-29T20:47:06.972Z,82.80
2018-05-29T20:49:35.696Z,83.70
2018-05-29T20:52:04.621Z,83.40
2018-05-29T20:54:34.709Z,84.00
2018-05-29T20:57:02.802Z,84.30
2018-05-29T20:59:30.592Z,85.30
2018-05-29T21:02:00.536Z,85.80
2018-05-29T21:04:28.403Z,85.70
2018-05-29T21:06:57.233Z,85.10
2018-05-29T21:09:25.025Z,85.10
2018-05-29T21:11:52.928Z,84.80
2018-05-29T21:14:20.816Z,85.00
2018-05-29T21:16:48.672Z,85.10
2018-05-29T21:19:16.516Z,85.00
2018-05-29T21:21:44.513Z,84.90
2018-05-29T21:24:12.335Z,84.90
2018-05-29T21:26:40.255Z,84.70
2018-05-29T21:29:08.030Z,84.70
2018-05-29T21:31:36.136Z,84.30
2018-05-29T21:34:03.959Z,84.90
2018-05-29T21:36:33.060Z,85.00
2018-05-29T21:39:01.933Z,85.40
2018-05-29T21:41:29.964Z,85.10
2018-05-29T21:43:58.008Z,85.40
2018-05-29T21:46:26.003Z,85.70
2018-05-29T21:48:53.934Z,86.10
2018-05-29T21:51:22.044Z,85.40
2018-05-29T21:53:49.949Z,85.80
2018-05-29T21:56:17.794Z,86.30
2018-05-29T21:58:45.559Z,86.30
2018-05-29T22:03:48.874Z,86.70
2018-05-29T22:06:20.558Z,86.90
2018-05-29T22:08:48.498Z,87.30
2018-05-29T22:11:16.381Z,87.40
2018-05-29T22:13:44.232Z,88.10
2018-05-29T22:16:12.072Z,87.30
2018-05-29T22:18:40.056Z,87.40
2018-05-29T22:21:07.866Z,87.60
2018-05-29T22:23:36.669Z,87.70
2018-05-29T22:26:05.243Z,88.30
2018-05-29T22:28:33.036Z,88.00
2018-05-29T22:31:00.855Z,87.90
2018-05-29T22:33:28.656Z,88.10
2018-05-29T22:35:56.514Z,88.10
2018-05-29T22:38:24.415Z,88.40
2018-05-29T22:40:52.944Z,88.20
2018-05-29T22:43:20.690Z,88.10
2018-05-29T22:45:48.492Z,88.10
2018-05-29T22:48:16.291Z,88.10
2018-05-29T22:50:44.259Z,88.00
2018-05-29T22:53:12.160Z,88.10
2018-05-29T22:55:39.976Z,88.00
2018-05-29T22:58:07.807Z,88.30
2018-05-29T23:00:35.661Z,88.20
2018-05-29T23:03:03.530Z,88.20
2018-05-29T23:05:31.383Z,87.70
2018-05-29T23:07:59.131Z,88.00
2018-05-29T23:10:26.922Z,87.90
2018-05-29T23:12:55.026Z,87.70
2018-05-29T23:15:22.877Z,87.80
2018-05-29T23:17:50.775Z,87.60
2018-05-29T23:20:18.575Z,87.70
2018-05-29T23:22:46.362Z,87.10
2018-05-29T23:25:15.010Z,86.60
2018-05-29T23:27:42.914Z,86.60
2018-05-29T23:30:10.744Z,86.20
2018-05-29T23:32:38.818Z,86.00
2018-05-29T23:35:06.741Z,85.40
2018-05-29T23:37:34.588Z,84.90
2018-05-29T23:40:02.506Z,84.90
2018-05-29T23:42:30.348Z,84.70
2018-05-29T23:44:58.215Z,84.90
2018-05-29T23:47:26.071Z,84.90
2018-05-29T23:49:53.883Z,84.80
2018-05-29T23:52:21.771Z,84.80
2018-05-29T23:54:49.633Z,84.80
2018-05-29T23:57:17.642Z,84.70
2018-05-29T23:59:45.426Z,84.70
